Time;durP1;ratioP1;P1;durP2;ratioP2;P2;SDS_P1;SDS_P2;PMS_P1;PMS_P2;Temp;Humidity;BMP_temperature;BMP_pressure;BME280_temperature;BME280_humidity;BME280_pressure;Samples;Min_cycle;Max_cycle;Signal;HPM_P1;HPM_P2
2023/07/19 00:02:17;;;;;;;10.98;4.15;;;;;;;25.98;50.23;98845.75;4417056;32;33884;-96
2023/07/19 00:04:45;;;;;;;8.75;4.35;;;;;;;25.98;50.30;98847.53;4392003;32;34798;-96
2023/07/19 00:07:12;;;;;;;9.25;4.37;;;;;;;25.83;50.66;98841.28;4405427;32;33635;-96
2023/07/19 00:09:40;;;;;;;9.45;3.90;;;;;;;25.98;50.33;98831.59;4404345;32;34466;-96
2023/07/19 00:12:08;;;;;;;10.40;4.68;;;;;;;26.01;49.95;98821.66;4404269;32;34188;-96
2023/07/19 00:14:36;;;;;;;12.77;4.82;;;;;;;26.00;50.10;98804.03;4391802;32;33478;-96
2023/07/19 00:17:03;;;;;;;8.88;3.87;;;;;;;26.09;50.04;98807.97;4405190;32;33338;-96
2023/07/19 00:19:31;;;;;;;9.60;4.07;;;;;;;25.93;50.32;98810.63;4405642;32;33720;-96
2023/07/19 00:21:59;;;;;;;9.95;4.68;;;;;;;25.85;50.50;98818.16;4405641;32;34168;-96
2023/07/19 00:24:26;;;;;;;8.93;4.53;;;;;;;25.93;50.00;98802.66;4391412;32;34019;-96
2023/07/19 00:26:56;;;;;;;10.05;4.15;;;;;;;25.85;50.02;98796.91;4417097;32;34501;-96
2023/07/19 00:29:23;;;;;;;9.98;4.00;;;;;;;25.89;49.78;98782.53;4403792;32;34103;-96
2023/07/19 00:31:51;;;;;;;11.02;3.90;;;;;;;25.85;49.84;98773.00;4403505;32;33718;-96
2023/07/19 00:34:19;;;;;;;10.25;3.97;;;;;;;25.88;49.94;98778.16;4403724;32;33933;-96
2023/07/19 00:36:47;;;;;;;13.02;4.70;;;;;;;26.00;49.68;98785.44;4405307;32;34169;-96
2023/07/19 00:39:14;;;;;;;8.15;3.90;;;;;;;25.78;50.08;98788.44;4403121;32;34065;-96
2023/07/19 00:41:42;;;;;;;11.27;4.25;;;;;;;25.66;50.70;98795.25;4403424;32;35064;-96
2023/07/19 00:44:10;;;;;;;8.30;4.20;;;;;;;25.66;50.54;98787.28;4404360;32;34255;-96
2023/07/19 00:46:38;;;;;;;12.95;4.68;;;;;;;25.66;50.29;98771.34;4403188;32;33290;-96
2023/07/19 00:49:07;;;;;;;11.65;4.85;;;;;;;25.71;50.20;98771.94;4403373;32;34890;-96
2023/07/19 00:51:35;;;;;;;13.80;4.57;;;;;;;25.56;50.60;98764.81;4404463;32;34041;-96
2023/07/19 00:54:04;;;;;;;10.00;4.47;;;;;;;25.54;50.58;98777.34;4404470;32;34010;-96
2023/07/19 00:56:32;;;;;;;10.63;4.68;;;;;;;25.42;50.89;98770.91;4390992;32;32921;-96
2023/07/19 00:59:02;;;;;;;9.00;4.62;;;;;;;25.52;50.68;98755.31;4390720;32;33789;-96
2023/07/19 01:01:29;;;;;;;9.30;4.22;;;;;;;25.38;51.08;98753.44;4402689;32;89581;-96
2023/07/19 01:03:57;;;;;;;7.18;3.95;;;;;;;25.51;50.77;98752.75;4406220;32;34467;-96
2023/07/19 01:06:25;;;;;;;9.45;4.35;;;;;;;25.58;50.78;98736.41;4405613;32;34040;-96
2023/07/19 01:08:52;;;;;;;9.32;4.82;;;;;;;25.71;50.46;98752.50;4393881;32;32895;-96
2023/07/19 01:11:20;;;;;;;9.63;3.78;;;;;;;25.61;50.44;98765.44;4406230;32;34462;-96
2023/07/19 01:13:53;;;;;;;10.43;4.57;;;;;;;25.58;50.62;98765.59;4419314;32;34163;-97
2023/07/19 01:16:21;;;;;;;11.77;5.10;;;;;;;25.57;50.65;98769.22;4408390;32;33351;-96
2023/07/19 01:18:49;;;;;;;10.93;4.32;;;;;;;25.57;50.56;98769.22;4383584;32;32386;-96
2023/07/19 01:21:17;;;;;;;9.65;4.40;;;;;;;25.74;50.19;98768.25;4409690;32;34127;-96
2023/07/19 01:23:52;;;;;;;;;;;;;;;25.55;50.53;98768.41;4421706;32;34104;-96
2023/07/19 01:26:20;;;;;;;7.53;3.95;;;;;;;25.78;49.90;98767.19;4397626;32;32679;-96
2023/07/19 01:28:48;;;;;;;9.65;3.67;;;;;;;25.52;50.52;98760.63;4410316;32;33600;-96
2023/07/19 01:31:16;;;;;;;13.32;4.68;;;;;;;25.55;50.43;98749.84;4386670;32;32705;-96
2023/07/19 01:33:45;;;;;;;10.73;3.95;;;;;;;25.55;50.48;98752.50;4398629;32;33189;-96
2023/07/19 01:36:14;;;;;;;8.60;4.07;;;;;;;25.43;50.76;98758.47;4386351;32;32894;-96
2023/07/19 01:38:45;;;;;;;9.07;3.85;;;;;;;25.58;50.45;98752.34;4412278;32;32726;-96
2023/07/19 01:41:14;;;;;;;10.55;4.00;;;;;;;25.40;50.84;98750.69;4398013;32;34474;-96
2023/07/19 01:43:42;;;;;;;8.82;3.75;;;;;;;25.22;51.26;98747.22;4411136;32;34374;-96
2023/07/19 01:46:11;;;;;;;12.02;3.75;;;;;;;25.26;51.09;98743.47;4422779;32;33904;-96
2023/07/19 01:48:40;;;;;;;8.88;3.22;;;;;;;25.22;51.09;98736.59;4396996;32;32077;-96
2023/07/19 01:51:08;;;;;;;10.77;4.25;;;;;;;25.17;51.26;98741.31;4410455;32;33678;-96
2023/07/19 01:53:36;;;;;;;8.57;3.40;;;;;;;25.19;51.04;98739.41;4396676;32;33477;-96
2023/07/19 01:56:04;;;;;;;8.85;3.33;;;;;;;25.03;51.40;98744.66;4421141;32;33507;-96
2023/07/19 01:58:32;;;;;;;12.20;3.90;;;;;;;25.06;51.32;98744.50;4407345;32;33705;-96
2023/07/19 02:01:01;;;;;;;9.20;3.42;;;;;;;24.92;51.55;98755.81;4420765;32;34644;-96
2023/07/19 02:03:30;;;;;;;10.82;3.95;;;;;;;24.60;52.46;98748.69;4408050;32;32944;-96
2023/07/19 02:05:59;;;;;;;13.05;3.45;;;;;;;24.89;51.87;98755.12;4407157;32;34590;-96
2023/07/19 02:08:27;;;;;;;11.45;4.03;;;;;;;24.70;52.19;98758.75;4407408;32;33808;-96
2023/07/19 02:10:55;;;;;;;10.60;3.55;;;;;;;24.79;51.93;98764.50;4418171;32;33841;-96
2023/07/19 02:13:22;;;;;;;11.85;3.53;;;;;;;24.84;51.78;98758.03;4418035;32;34994;-96
2023/07/19 02:15:51;;;;;;;10.80;4.30;;;;;;;24.90;51.51;98764.81;4406627;32;33175;-96
2023/07/19 02:18:21;;;;;;;11.48;3.72;;;;;;;24.82;52.02;98764.38;4405733;32;34111;-96
2023/07/19 02:20:51;;;;;;;9.90;3.45;;;;;;;24.80;52.11;98767.06;4406834;32;34154;-96
2023/07/19 02:23:19;;;;;;;12.20;3.90;;;;;;;24.73;52.38;98771.81;4406177;32;34303;-96
2023/07/19 02:25:49;;;;;;;10.93;3.85;;;;;;;24.60;52.70;98785.81;4406704;32;33746;-96
2023/07/19 02:28:17;;;;;;;8.75;3.83;;;;;;;24.61;52.92;98793.66;4404891;32;34040;-96
2023/07/19 02:30:45;;;;;;;11.73;3.78;;;;;;;24.52;53.31;98791.50;4405186;32;34752;-96
2023/07/19 02:33:14;;;;;;;11.10;3.87;;;;;;;24.59;53.02;98784.09;4406420;32;34014;-96
2023/07/19 02:35:42;;;;;;;8.60;3.92;;;;;;;24.46;53.38;98779.38;4407830;32;33577;-96
2023/07/19 02:38:10;;;;;;;10.73;3.70;;;;;;;24.43;53.48;98781.34;4406930;32;34011;-96
2023/07/19 02:40:38;;;;;;;7.87;3.53;;;;;;;24.37;53.52;98778.97;4407351;32;34051;-96
2023/07/19 02:43:06;;;;;;;11.12;3.42;;;;;;;24.29;53.92;98776.72;4397576;32;33357;-96
2023/07/19 02:45:35;;;;;;;6.32;3.28;;;;;;;24.30;53.71;98772.25;4384442;32;32746;-96
2023/07/19 02:48:03;;;;;;;8.88;3.50;;;;;;;24.22;53.84;98768.19;4394971;32;33090;-96
2023/07/19 02:50:31;;;;;;;7.65;3.10;;;;;;;24.28;53.79;98770.56;4421920;32;33963;-96
2023/07/19 02:52:59;;;;;;;11.30;3.42;;;;;;;24.37;53.44;98773.69;4396964;32;34421;-96
2023/07/19 02:55:27;;;;;;;10.75;3.12;;;;;;;24.22;53.76;98773.50;4399924;32;33384;-96
2023/07/19 02:57:56;;;;;;;11.38;3.22;;;;;;;24.24;53.63;98776.06;4386973;32;33103;-96
2023/07/19 03:00:24;;;;;;;9.10;3.30;;;;;;;24.16;53.81;98765.84;4399294;32;32931;-96
2023/07/19 03:02:55;;;;;;;10.10;3.30;;;;;;;23.98;54.60;98754.38;4412483;32;34352;-96
2023/07/19 03:05:24;;;;;;;7.53;2.62;;;;;;;24.30;53.77;98745.78;4412873;32;32464;-96
2023/07/19 03:07:52;;;;;;;9.98;3.25;;;;;;;24.24;53.64;98761.03;4387607;32;32706;-96
2023/07/19 03:10:21;;;;;;;12.43;3.22;;;;;;;24.08;54.42;98765.34;4413535;32;32255;-97
2023/07/19 03:12:50;;;;;;;10.75;3.25;;;;;;;24.07;54.52;98755.72;4401679;32;33964;-96
2023/07/19 03:15:23;;;;;;;9.27;3.50;;;;;;;24.20;54.15;98762.09;4388662;32;32665;-96
2023/07/19 03:17:57;;;;;;;9.20;3.70;;;;;;;24.28;53.79;98773.19;4404306;32;32780;-96
2023/07/19 03:20:27;;;;;;;10.65;3.22;;;;;;;24.18;54.12;98771.06;4379101;32;32741;-96
2023/07/19 03:23:08;;;;;;;8.07;3.70;;;;;;;24.02;54.75;98769.19;4380798;32;33712;-96
2023/07/19 03:25:38;;;;;;;13.30;3.42;;;;;;;24.18;54.52;98765.78;4379626;32;32010;-97
2023/07/19 03:28:08;;;;;;;11.23;3.70;;;;;;;24.31;54.33;98763.38;4387974;32;33613;-96
2023/07/19 03:30:42;;;;;;;10.57;4.43;;;;;;;24.28;54.60;98765.25;4365049;32;32888;-96
2023/07/19 03:34:00;;;;;;;8.85;3.72;;;;;;;24.08;55.22;98762.72;4403302;32;34532;-96
2023/07/19 03:37:22;;;;;;;9.90;3.53;;;;;;;24.34;54.74;98757.94;4398947;32;33886;-96
2023/07/19 03:39:54;;;;;;;7.93;3.97;;;;;;;24.49;54.35;98755.38;4416599;32;35027;-96
2023/07/19 03:42:54;;;;;;;8.02;3.83;;;;;;;24.35;55.05;98756.97;4404407;32;33496;-96
2023/07/19 03:45:51;;;;;;;10.95;4.18;;;;;;;24.42;54.97;98753.13;4416367;32;35268;-96
2023/07/19 03:48:20;;;;;;;9.27;4.40;;;;;;;24.38;55.13;98749.75;4390177;32;32206;-96
2023/07/19 03:51:15;;;;;;;10.65;4.53;;;;;;;24.26;55.52;98751.22;4389293;32;33167;-96
2023/07/19 03:53:48;;;;;;;10.52;4.87;;;;;;;24.35;55.53;98762.28;4398965;32;33252;-96
2023/07/19 03:56:17;;;;;;;10.45;4.57;;;;;;;24.12;56.36;98753.69;4388765;32;34517;-96
2023/07/19 03:58:48;;;;;;;9.20;3.97;;;;;;;24.41;55.47;98754.94;4398099;32;34868;-96
2023/07/19 04:01:16;;;;;;;8.55;4.18;;;;;;;24.23;55.86;98754.00;4398974;32;32765;-96
2023/07/19 04:03:45;;;;;;;11.12;4.45;;;;;;;24.28;55.68;98761.72;4397493;32;32589;-96
2023/07/19 04:06:17;;;;;;;12.30;4.35;;;;;;;24.43;55.59;98768.94;4396334;32;34928;-96
2023/07/19 04:08:45;;;;;;;13.27;4.93;;;;;;;24.19;55.86;98764.84;4371448;32;32927;-96
2023/07/19 04:11:14;;;;;;;12.57;4.75;;;;;;;24.28;55.51;98765.25;4383626;32;32962;-96
2023/07/19 04:13:43;;;;;;;10.98;3.95;;;;;;;24.13;56.19;98757.19;4373655;32;33290;-96
2023/07/19 04:16:24;;;;;;;8.57;3.65;;;;;;;24.14;56.32;98765.06;4406524;32;34059;-96
2023/07/19 04:19:14;;;;;;;12.20;4.45;;;;;;;24.43;55.55;98760.13;4417077;32;34400;-96
2023/07/19 04:21:44;;;;;;;12.75;4.65;;;;;;;23.96;56.28;98773.91;4410445;32;32838;-96
2023/07/19 04:24:34;;;;;;;9.77;4.12;;;;;;;24.00;56.07;98784.25;4402377;32;34178;-96
2023/07/19 04:27:05;;;;;;;11.15;3.83;;;;;;;23.67;57.07;98773.47;4403151;32;33834;-96
2023/07/19 04:29:34;;;;;;;9.70;4.60;;;;;;;24.37;55.61;98774.53;4411276;32;33470;-96
2023/07/19 04:32:01;;;;;;;11.35;3.90;;;;;;;24.38;55.34;98784.19;4393574;32;33617;-96
2023/07/19 04:34:29;;;;;;;11.30;4.37;;;;;;;24.58;54.76;98787.66;4409541;32;33073;-96
2023/07/19 04:36:57;;;;;;;13.27;4.53;;;;;;;24.46;54.90;98786.50;4380483;32;32749;-96
2023/07/19 04:39:25;;;;;;;12.35;3.75;;;;;;;25.09;53.68;98793.88;4418295;32;33745;-96
2023/07/19 04:42:02;;;;;;;9.18;3.47;;;;;;;25.63;52.33;98779.47;4421994;32;32470;-96
2023/07/19 04:44:50;;;;;;;8.00;3.37;;;;;;;25.36;52.86;98786.28;4402435;32;33280;-96
2023/07/19 04:47:19;;;;;;;10.00;3.62;;;;;;;25.79;51.82;98779.50;4397488;32;33807;-96
2023/07/19 04:49:47;;;;;;;9.95;4.30;;;;;;;25.92;51.25;98779.69;4410546;32;33628;-96
2023/07/19 04:52:19;;;;;;;9.27;3.90;;;;;;;25.93;51.36;98779.59;4417797;32;32636;-96
2023/07/19 04:54:48;;;;;;;12.45;3.65;;;;;;;26.11;51.25;98776.84;4414335;32;33108;-96
2023/07/19 05:00:29;;;;;;;8.60;3.50;;;;;;;26.45;50.39;98781.09;4427208;32;33568;-96
2023/07/19 05:03:01;;;;;;;10.50;3.80;;;;;;;27.17;48.34;98777.69;4398518;32;32430;-96
2023/07/19 05:05:31;;;;;;;11.88;3.92;;;;;;;27.72;47.08;98768.03;4410087;32;33229;-96
2023/07/19 05:07:59;;;;;;;8.27;3.58;;;;;;;27.72;46.74;98767.19;4420748;32;34445;-96
2023/07/19 05:10:26;;;;;;;10.73;3.67;;;;;;;28.17;46.48;98779.38;4413889;32;34190;-96
2023/07/19 05:12:54;;;;;;;8.27;3.58;;;;;;;27.82;46.32;98773.69;4429823;32;33921;-96
2023/07/19 05:18:17;;;;;;;9.90;3.47;;;;;;;28.32;45.57;98772.19;4433916;32;34402;-96
2023/07/19 05:20:57;;;;;;;10.23;3.97;;;;;;;28.67;45.64;98763.66;4400253;32;32697;-96
2023/07/19 05:23:28;;;;;;;7.75;3.30;;;;;;;28.37;45.54;98754.09;4414545;32;33675;-96
2023/07/19 05:26:00;;;;;;;8.38;3.00;;;;;;;28.59;45.68;98765.03;4399712;32;33794;-96
2023/07/19 05:28:30;;;;;;;11.43;3.47;;;;;;;28.93;44.58;98757.38;4426739;32;34234;-96
2023/07/19 05:31:05;;;;;;;12.80;3.53;;;;;;;28.38;45.40;98773.63;4398155;32;33578;-96
2023/07/19 05:33:33;;;;;;;7.85;3.30;;;;;;;29.01;44.53;98770.22;4422650;32;34633;-93
2023/07/19 05:36:01;;;;;;;8.75;3.37;;;;;;;29.50;43.81;98767.63;4423812;32;34448;-96
2023/07/19 05:38:29;;;;;;;8.60;2.95;;;;;;;29.09;45.03;98776.78;4413844;32;34733;-96
2023/07/19 05:41:04;;;;;;;10.90;3.35;;;;;;;29.07;44.14;98778.69;4399751;32;33740;-96
2023/07/19 05:43:39;;;;;;;8.73;3.58;;;;;;;28.42;45.38;98778.66;4401518;32;33501;-96
2023/07/19 05:46:12;;;;;;;10.32;3.30;;;;;;;28.24;45.95;98774.50;4380627;32;33715;-96
2023/07/19 05:48:41;;;;;;;10.25;3.87;;;;;;;28.07;46.75;98795.13;4414966;27;32614;-96
2023/07/19 05:51:08;;;;;;;7.50;3.85;;;;;;;27.97;46.77;98794.00;4390180;32;33024;-96
2023/07/19 05:53:37;;;;;;;10.60;3.67;;;;;;;28.31;46.79;98797.13;4391981;32;34018;-96
2023/07/19 05:56:05;;;;;;;9.80;3.08;;;;;;;28.34;46.41;98797.78;4366513;32;33122;-95
2023/07/19 05:58:32;;;;;;;7.82;3.30;;;;;;;28.47;47.05;98802.34;4390879;32;33783;-91
2023/07/19 06:01:00;;;;;;;10.35;3.28;;;;;;;28.57;46.51;98798.97;4390845;32;33969;-93
2023/07/19 06:03:28;;;;;;;8.25;4.32;;;;;;;28.13;46.59;98801.84;4389446;32;34311;-96
2023/07/19 06:05:56;;;;;;;10.60;3.33;;;;;;;28.46;46.49;98796.16;4390858;32;33970;-95
2023/07/19 06:08:23;;;;;;;13.38;3.78;;;;;;;28.50;45.85;98796.81;4402508;32;34030;-96
2023/07/19 06:10:52;;;;;;;8.88;3.22;;;;;;;28.93;45.98;98800.09;4392150;32;33419;-96
2023/07/19 06:13:20;;;;;;;9.90;3.65;;;;;;;28.44;46.02;98795.38;4403671;32;34100;-92
2023/07/19 06:15:48;;;;;;;7.68;3.45;;;;;;;28.04;47.60;98803.31;4402295;32;34373;-95
2023/07/19 06:18:19;;;;;;;8.95;3.47;;;;;;;28.43;46.68;98804.34;4389911;32;34895;-94
2023/07/19 06:20:47;;;;;;;8.25;3.35;;;;;;;28.38;47.16;98809.16;4391355;32;32867;-95
2023/07/19 06:23:14;;;;;;;14.85;3.78;;;;;;;28.25;47.55;98803.72;4401964;32;33555;-94
2023/07/19 06:25:45;;;;;;;9.63;3.37;;;;;;;28.25;47.12;98802.88;4391748;32;34973;-96
2023/07/19 06:28:12;;;;;;;10.52;3.65;;;;;;;28.11;47.25;98801.97;4391614;32;33811;-91
2023/07/19 06:30:41;;;;;;;10.73;3.85;;;;;;;28.36;47.06;98805.69;4390846;32;34384;-94
2023/07/19 06:33:09;;;;;;;11.20;3.45;;;;;;;28.43;46.09;98804.34;4389774;32;33754;-94
2023/07/19 06:35:36;;;;;;;9.88;3.47;;;;;;;28.15;47.49;98802.63;4391065;32;33767;-96
2023/07/19 06:38:05;;;;;;;10.18;3.60;;;;;;;27.40;49.30;98791.38;4390666;32;33883;-96
2023/07/19 06:40:32;;;;;;;7.90;3.25;;;;;;;27.55;49.31;98790.44;4377552;32;34245;-95
2023/07/19 06:43:00;;;;;;;10.27;3.92;;;;;;;27.92;49.53;98780.13;4403486;32;32703;-96
2023/07/19 06:45:27;;;;;;;11.10;3.78;;;;;;;27.88;48.20;98773.25;4389271;32;33843;-95
2023/07/19 06:47:55;;;;;;;9.80;3.35;;;;;;;28.10;47.98;98778.91;4377059;32;34121;-96
2023/07/19 06:50:23;;;;;;;9.75;3.97;;;;;;;28.29;47.97;98788.38;4390483;32;34347;-93
2023/07/19 06:52:51;;;;;;;11.48;3.78;;;;;;;28.32;47.49;98793.50;4389059;32;34861;-95
2023/07/19 06:55:18;;;;;;;10.93;3.95;;;;;;;28.06;48.63;98795.22;4389932;32;34121;-96
2023/07/19 06:57:46;;;;;;;11.77;3.85;;;;;;;28.15;48.12;98791.97;4388100;32;34812;-96
2023/07/19 07:00:14;;;;;;;7.47;3.87;;;;;;;28.34;47.16;98779.13;4376635;32;33745;-92
2023/07/19 07:02:41;;;;;;;9.52;3.53;;;;;;;28.11;47.65;98783.31;4391145;32;33385;-93
2023/07/19 07:05:12;;;;;;;9.90;3.60;;;;;;;28.13;47.85;98769.88;4390346;32;34443;-90
2023/07/19 07:07:39;;;;;;;10.82;3.87;;;;;;;27.68;50.17;98768.34;4390276;32;33776;-92
2023/07/19 07:10:09;;;;;;;11.10;3.72;;;;;;;27.29;49.89;98769.91;4389202;32;33201;-96
2023/07/19 07:12:37;;;;;;;8.25;4.18;;;;;;;27.80;48.86;98768.44;4378357;32;33453;-94
2023/07/19 07:15:05;;;;;;;10.02;3.87;;;;;;;28.11;49.20;98772.66;4390351;32;33744;-95
2023/07/19 07:17:33;;;;;;;12.77;3.90;;;;;;;28.03;48.04;98763.44;4378446;32;33743;-96
2023/07/19 07:20:00;;;;;;;12.13;4.20;;;;;;;28.30;46.85;98763.44;4390328;32;33715;-95
2023/07/19 07:22:28;;;;;;;11.93;3.62;;;;;;;28.31;48.10;98774.00;4376500;32;34064;-96
2023/07/19 07:24:56;;;;;;;9.00;4.20;;;;;;;27.89;47.64;98777.66;4365013;32;33471;-95
2023/07/19 07:27:23;;;;;;;13.27;3.87;;;;;;;28.32;47.61;98783.69;4390704;32;33915;-95
2023/07/19 07:29:52;;;;;;;11.10;3.92;;;;;;;28.47;48.08;98778.34;4391871;32;33593;-96
2023/07/19 07:32:22;;;;;;;11.10;4.10;;;;;;;28.70;47.11;98785.66;4393469;32;34071;-95
2023/07/19 07:34:50;;;;;;;10.90;4.05;;;;;;;28.84;46.47;98782.06;4393590;32;34809;-96
2023/07/19 07:37:17;;;;;;;10.48;4.12;;;;;;;28.83;46.48;98788.34;4365852;32;34193;-95
2023/07/19 07:39:45;;;;;;;13.95;4.37;;;;;;;28.70;47.46;98780.31;4390315;32;33591;-96
2023/07/19 07:42:13;;;;;;;12.18;3.58;;;;;;;29.00;46.63;98782.72;4388904;32;33865;-94
2023/07/19 07:44:40;;;;;;;7.60;3.85;;;;;;;29.14;46.58;98781.78;4388879;32;32923;-96
2023/07/19 07:47:09;;;;;;;12.55;4.10;;;;;;;28.81;47.25;98782.25;4390343;32;34558;-95
2023/07/19 07:49:36;;;;;;;13.68;4.32;;;;;;;28.81;46.65;98785.78;4390153;32;33472;-96
2023/07/19 07:52:04;;;;;;;10.35;4.32;;;;;;;29.26;46.37;98782.75;4377213;32;33704;-95
2023/07/19 07:54:32;;;;;;;12.52;4.45;;;;;;;28.89;47.02;98787.06;4377528;32;33790;-96
2023/07/19 07:57:01;;;;;;;9.90;4.28;;;;;;;29.08;47.39;98788.38;4367368;32;34822;-96
2023/07/19 07:59:29;;;;;;;7.50;4.07;;;;;;;28.85;46.99;98799.75;4365863;32;32208;-95
2023/07/19 08:01:58;;;;;;;8.80;4.30;;;;;;;28.69;48.39;98794.63;4393150;32;34055;-95
2023/07/19 08:04:27;;;;;;;8.82;4.10;;;;;;;28.98;47.32;98782.00;4390283;32;33956;-96
2023/07/19 08:06:56;;;;;;;10.23;4.45;;;;;;;28.64;47.09;98779.84;4377294;32;32921;-95
2023/07/19 08:09:23;;;;;;;9.85;4.03;;;;;;;28.76;48.47;98771.06;4378205;32;33704;-91
2023/07/19 08:11:51;;;;;;;13.80;4.12;;;;;;;28.68;46.34;98770.69;4391870;32;33542;-92
2023/07/19 08:14:19;;;;;;;11.23;4.05;;;;;;;28.35;47.87;98772.84;4391368;32;33814;-95
2023/07/19 08:16:50;;;;;;;9.20;4.10;;;;;;;28.33;48.78;98773.87;4395574;32;34888;-95
2023/07/19 08:19:18;;;;;;;12.73;4.45;;;;;;;28.53;47.67;98770.78;4365702;32;32613;-96
2023/07/19 08:21:45;;;;;;;13.98;4.15;;;;;;;28.46;48.10;98764.16;4395335;32;33904;-96
2023/07/19 08:24:25;;;;;;;12.57;4.40;;;;;;;28.35;48.26;98761.31;4396814;32;34518;-96
2023/07/19 08:26:53;;;;;;;11.52;4.22;;;;;;;28.49;47.64;98761.28;4393394;32;34202;-96
2023/07/19 08:29:21;;;;;;;11.80;4.25;;;;;;;28.38;48.01;98761.16;4379073;32;32371;-96
2023/07/19 08:31:52;;;;;;;10.35;4.50;;;;;;;28.30;48.81;98766.13;4387411;32;33825;-96
2023/07/19 08:34:26;;;;;;;8.32;4.12;;;;;;;28.77;48.08;98778.09;4368516;32;33690;-89
2023/07/19 08:36:54;;;;;;;12.18;4.37;;;;;;;29.02;47.67;98772.81;4391806;32;33790;-92
2023/07/19 08:39:23;;;;;;;9.30;4.25;;;;;;;28.92;47.23;98761.03;4391417;32;33663;-90
2023/07/19 08:41:51;;;;;;;14.45;4.45;;;;;;;29.40;44.66;98763.94;4392170;32;33412;-96
2023/07/19 08:46:57;;;;;;;10.48;3.97;;;;;;;29.86;45.61;98767.81;4379490;32;34181;-96
2023/07/19 08:52:06;;;;;;;13.57;4.37;;;;;;;29.95;44.18;98773.31;4378980;32;33845;-95
2023/07/19 08:54:49;;;;;;;13.27;4.15;;;;;;;30.31;43.04;98776.97;4389956;32;34882;-95
2023/07/19 08:57:17;;;;;;;15.43;3.95;;;;;;;30.20;42.89;98771.56;4391445;32;34075;-92
2023/07/19 08:59:44;;;;;;;9.93;4.05;;;;;;;29.66;42.95;98782.59;4391455;32;33684;-92
2023/07/19 09:02:12;;;;;;;11.07;4.07;;;;;;;29.75;42.82;98781.94;4392522;32;33711;-95
2023/07/19 09:04:40;;;;;;;7.55;3.85;;;;;;;30.16;42.09;98786.09;4391968;32;34827;-96
2023/07/19 09:07:13;;;;;;;11.10;4.62;;;;;;;30.24;41.75;98781.06;4379570;32;34112;-96
2023/07/19 09:09:41;;;;;;;9.90;4.20;;;;;;;30.32;41.73;98772.47;4377734;32;33009;-95
2023/07/19 09:12:08;;;;;;;14.43;4.70;;;;;;;29.77;42.41;98772.00;4391333;32;34603;-92
2023/07/19 09:14:36;;;;;;;16.92;4.80;;;;;;;29.56;43.02;98777.91;4391384;32;33587;-96
2023/07/19 09:17:08;;;;;;;12.85;4.30;;;;;;;29.74;43.05;98766.91;4392020;32;34667;-95
2023/07/19 09:19:37;;;;;;;8.43;3.72;;;;;;;29.76;43.82;98775.63;4392527;32;33549;-94
2023/07/19 09:22:15;;;;;;;14.65;4.57;;;;;;;30.02;41.90;98771.06;4391540;32;33589;-94
2023/07/19 09:24:57;;;;;;;14.48;4.57;;;;;;;30.03;42.43;98770.94;4391769;32;34553;-94
2023/07/19 09:27:41;;;;;;;10.02;4.50;;;;;;;29.75;42.23;98763.25;4368284;32;35038;-95
2023/07/19 09:30:12;;;;;;;9.85;4.07;;;;;;;30.16;41.51;98770.94;4378366;32;32716;-96
2023/07/19 09:32:40;;;;;;;16.83;4.80;;;;;;;29.92;42.12;98767.34;4390368;32;33662;-96
2023/07/19 09:35:08;;;;;;;7.78;3.97;;;;;;;29.71;42.93;98769.78;4379145;32;34833;-96
2023/07/19 09:37:38;;;;;;;10.20;4.72;;;;;;;30.05;43.18;98769.03;4395253;32;33633;-96
2023/07/19 09:40:06;;;;;;;12.30;4.53;;;;;;;30.31;42.09;98763.59;4392728;32;33728;-92
2023/07/19 09:42:36;;;;;;;19.27;5.00;;;;;;;30.24;42.48;98767.69;4393007;32;34733;-96
2023/07/19 09:45:06;;;;;;;10.05;4.25;;;;;;;30.58;41.64;98767.84;4365458;32;33622;-96
2023/07/19 09:47:37;;;;;;;13.10;4.20;;;;;;;30.07;42.02;98768.91;4391876;32;34804;-95
2023/07/19 09:50:08;;;;;;;11.48;4.10;;;;;;;30.16;42.43;98768.28;4388208;32;34443;-96
2023/07/19 09:53:02;;;;;;;8.18;4.18;;;;;;;30.18;42.24;98771.66;4392044;32;32880;-95
2023/07/19 09:55:33;;;;;;;18.05;5.00;;;;;;;30.31;41.35;98771.63;4405264;32;33806;-96
2023/07/19 09:58:01;;;;;;;10.90;4.43;;;;;;;30.19;42.12;98775.19;4379629;32;34279;-96
2023/07/19 10:00:30;;;;;;;10.40;4.60;;;;;;;30.59;40.06;98762.34;4405892;32;34131;-96
2023/07/19 10:02:59;;;;;;;9.15;4.20;;;;;;;30.50;42.39;98760.41;4377488;32;32403;-92
2023/07/19 10:05:30;;;;;;;10.30;4.37;;;;;;;30.13;42.54;98755.09;4390842;32;34714;-95
2023/07/19 10:08:10;;;;;;;13.30;4.22;;;;;;;30.13;43.77;98748.91;4390573;32;34953;-91
2023/07/19 10:10:39;;;;;;;11.18;4.28;;;;;;;30.44;41.17;98751.00;4391103;32;34440;-93
2023/07/19 10:13:08;;;;;;;10.60;4.20;;;;;;;30.50;40.64;98747.03;4391506;32;33341;-96
2023/07/19 10:15:40;;;;;;;10.57;4.50;;;;;;;30.62;40.53;98746.06;4389704;32;34918;-96
2023/07/19 10:18:13;;;;;;;12.35;4.18;;;;;;;30.56;40.41;98748.38;4390541;32;34717;-95
2023/07/19 10:20:43;;;;;;;11.10;4.87;;;;;;;30.45;39.22;98741.16;4391030;32;34339;-94
2023/07/19 10:23:13;;;;;;;11.25;4.50;;;;;;;30.38;40.25;98739.91;4389608;32;33267;-92
2023/07/19 10:25:48;;;;;;;12.80;4.80;;;;;;;30.84;39.13;98737.28;4390883;32;34062;-94
2023/07/19 10:28:35;;;;;;;8.05;4.40;;;;;;;30.41;40.41;98727.16;4389755;32;34286;-96
2023/07/19 10:31:03;;;;;;;12.43;3.83;;;;;;;30.37;41.18;98733.69;4391314;32;33657;-92
2023/07/19 10:33:53;;;;;;;8.93;4.45;;;;;;;30.47;39.85;98726.69;4391661;32;34564;-94
2023/07/19 10:36:21;;;;;;;14.07;4.85;;;;;;;30.69;38.73;98725.06;4390786;32;33910;-93
2023/07/19 10:38:49;;;;;;;15.25;4.87;;;;;;;30.50;39.57;98713.09;4390303;32;34141;-96
2023/07/19 10:41:19;;;;;;;12.77;4.57;;;;;;;30.56;39.28;98703.72;4401798;32;34137;-94
2023/07/19 10:43:49;;;;;;;10.65;4.25;;;;;;;31.02;38.43;98701.03;4391234;32;34575;-95
2023/07/19 10:46:21;;;;;;;9.90;4.40;;;;;;;31.06;39.18;98687.41;4377514;32;33826;-96
2023/07/19 10:48:53;;;;;;;12.30;5.03;;;;;;;30.66;38.04;98679.81;4389192;32;33898;-96
2023/07/19 10:51:28;;;;;;;10.52;4.28;;;;;;;31.04;36.91;98682.19;4391268;32;34090;-96
2023/07/19 10:54:04;;;;;;;12.30;4.20;;;;;;;31.13;37.28;98677.91;4402318;32;33709;-96
2023/07/19 10:56:32;;;;;;;13.55;4.07;;;;;;;31.30;36.43;98681.94;4390103;32;33956;-90
2023/07/19 10:59:00;;;;;;;8.10;3.70;;;;;;;31.24;36.53;98689.47;4390591;32;33718;-88
2023/07/19 11:01:29;;;;;;;10.05;3.87;;;;;;;30.78;36.77;98689.59;4391378;32;33521;-95
2023/07/19 11:04:03;;;;;;;11.05;3.55;;;;;;;30.99;35.29;98700.44;4389506;32;33625;-93
2023/07/19 11:06:32;;;;;;;14.40;4.15;;;;;;;31.30;36.60;98704.25;4390534;32;33809;-91
2023/07/19 11:09:06;;;;;;;12.90;3.65;;;;;;;31.14;37.49;98709.94;4390903;32;34055;-94
2023/07/19 11:11:47;;;;;;;10.50;3.92;;;;;;;31.17;35.14;98709.69;4390919;32;33509;-94
2023/07/19 11:14:31;;;;;;;11.27;3.70;;;;;;;31.71;36.17;98705.41;4389609;32;33445;-94
2023/07/19 11:16:59;;;;;;;9.00;3.72;;;;;;;31.88;35.59;98699.53;4390526;32;33736;-89
2023/07/19 11:19:38;;;;;;;10.30;4.15;;;;;;;31.89;33.95;98690.50;4390495;32;34947;-91
2023/07/19 11:22:07;;;;;;;10.52;4.10;;;;;;;31.46;34.40;98688.63;4390040;32;34180;-91
2023/07/19 11:24:39;;;;;;;8.82;3.62;;;;;;;31.80;34.54;98695.75;4390547;32;34420;-93
2023/07/19 11:27:08;;;;;;;8.20;4.50;;;;;;;31.66;33.32;98688.84;4390673;32;34165;-94
2023/07/19 11:29:35;;;;;;;9.07;3.95;;;;;;;31.76;32.99;98688.94;4402625;32;34144;-93
2023/07/19 11:32:20;;;;;;;8.90;4.07;;;;;;;31.67;33.48;98682.50;4390896;32;33162;-94
2023/07/19 11:34:49;;;;;;;8.25;3.72;;;;;;;31.96;33.33;98689.03;4390629;32;33483;-89
2023/07/19 11:37:22;;;;;;;11.07;3.90;;;;;;;31.46;33.21;98675.25;4390933;32;33811;-95
2023/07/19 11:39:51;;;;;;;10.38;3.90;;;;;;;32.09;32.62;98686.19;4389667;32;34578;-94
2023/07/19 11:42:47;;;;;;;9.55;3.87;;;;;;;32.09;32.64;98679.97;4390450;32;33396;-95
2023/07/19 11:45:17;;;;;;;9.48;4.15;;;;;;;32.01;32.44;98682.41;4389378;32;34794;-94
2023/07/19 11:48:00;;;;;;;7.07;3.33;;;;;;;31.96;33.09;98680.13;4378118;32;33574;-89
2023/07/19 11:50:28;;;;;;;11.82;4.35;;;;;;;32.17;32.60;98672.13;4389917;32;34227;-91
2023/07/19 11:52:59;;;;;;;10.35;3.65;;;;;;;31.40;33.95;98678.41;4389781;32;34068;-91
2023/07/19 11:55:28;;;;;;;11.12;3.92;;;;;;;31.60;34.15;98681.31;4376349;32;33968;-95
2023/07/19 11:58:02;;;;;;;9.25;3.72;;;;;;;31.68;34.16;98686.91;4376239;32;34601;-94